Time;durP1;ratioP1;P1;durP2;ratioP2;P2;SDS_P1;SDS_P2;PMS_P1;PMS_P2;Temp;Humidity;BMP_temperature;BMP_pressure;BME280_temperature;BME280_humidity;BME280_pressure;Samples;Min_cycle;Max_cycle;Signal;HPM_P1;HPM_P2
2021/06/20 00:00:16;;;;;;;9.95;9.15;;;;;;;25.10;51.88;94931.38;5048471;28;20094;-66
2021/06/20 00:02:43;;;;;;;9.98;9.25;;;;;;;25.00;52.01;94926.00;5034583;28;20045;-67
2021/06/20 00:05:12;;;;;;;10.40;9.20;;;;;;;24.74;54.01;94919.22;5028567;28;20073;-67
2021/06/20 00:07:41;;;;;;;9.70;8.85;;;;;;;24.90;52.65;94912.06;5013992;28;20121;-67
2021/06/20 00:10:08;;;;;;;9.43;8.75;;;;;;;24.96;52.67;94926.03;5008290;28;20057;-66
2021/06/20 00:12:38;;;;;;;10.23;9.32;;;;;;;25.02;52.29;94916.25;5008272;28;20025;-66
2021/06/20 00:15:08;;;;;;;10.45;9.55;;;;;;;25.13;52.16;94924.34;5024906;28;20044;-66
2021/06/20 00:17:34;;;;;;;10.60;9.13;;;;;;;25.06;51.71;94903.41;5028432;28;20041;-65
2021/06/20 00:19:59;;;;;;;10.13;9.23;;;;;;;25.04;51.58;94899.53;5028348;28;20037;-66
2021/06/20 00:22:25;;;;;;;9.65;8.85;;;;;;;24.98;52.02;94901.13;5027299;28;20124;-65
2021/06/20 00:24:50;;;;;;;10.73;9.00;;;;;;;24.91;52.35;94899.25;5029815;28;20029;-65
2021/06/20 00:27:15;;;;;;;9.93;9.23;;;;;;;24.85;52.25;94895.41;5043667;28;20232;-65
2021/06/20 00:29:41;;;;;;;9.75;8.85;;;;;;;24.66;52.46;94891.28;5015314;28;20086;-65
2021/06/20 00:32:07;;;;;;;9.90;9.00;;;;;;;24.61;52.75;94889.75;5016894;28;20033;-65
2021/06/20 00:34:32;;;;;;;10.02;9.23;;;;;;;24.62;52.73;94899.50;5043616;28;20383;-65
2021/06/20 00:36:57;;;;;;;9.93;8.93;;;;;;;24.57;53.42;94896.44;5029572;28;20044;-66
2021/06/20 00:39:23;;;;;;;9.50;8.73;;;;;;;24.51;53.19;94900.72;5028263;28;20030;-65
2021/06/20 00:41:48;;;;;;;10.50;9.60;;;;;;;24.39;53.38;94872.06;5014134;28;20113;-66
2021/06/20 00:44:13;;;;;;;10.77;9.23;;;;;;;24.52;53.63;94885.97;5017355;28;20072;-66
2021/06/20 00:46:39;;;;;;;10.02;9.13;;;;;;;24.49;53.77;94882.09;5028120;28;20029;-66
2021/06/20 00:49:04;;;;;;;9.52;8.82;;;;;;;24.45;53.47;94872.41;5029945;28;20028;-66
2021/06/20 00:51:30;;;;;;;10.57;9.68;;;;;;;24.55;53.49;94885.94;5028161;28;20072;-66
2021/06/20 00:53:55;;;;;;;10.07;9.10;;;;;;;24.57;53.84;94882.81;5035783;28;20025;-66
2021/06/20 00:56:21;;;;;;;10.38;9.48;;;;;;;24.30;54.31;94880.63;5027917;28;20034;-66
2021/06/20 00:58:47;;;;;;;9.48;8.77;;;;;;;24.36;54.60;94886.44;5026728;28;20029;-66
2021/06/20 01:01:13;;;;;;;10.05;9.35;;;;;;;24.32;54.28;94875.59;5026633;28;20026;-65
2021/06/20 01:03:38;;;;;;;11.05;10.00;;;;;;;24.40;54.07;94897.31;5029493;28;20031;-66
2021/06/20 01:06:04;;;;;;;9.68;8.93;;;;;;;24.40;54.53;94889.91;5026537;28;20041;-67
2021/06/20 01:08:30;;;;;;;9.68;8.90;;;;;;;24.35;54.67;94890.31;5027322;28;20491;-66
2021/06/20 01:10:56;;;;;;;9.60;8.90;;;;;;;24.34;54.30;94896.91;5027625;28;20060;-66
2021/06/20 01:13:21;;;;;;;9.93;9.00;;;;;;;24.22;54.59;94890.00;5027446;28;20052;-66
2021/06/20 01:15:50;;;;;;;9.55;8.80;;;;;;;24.17;54.64;94885.00;5029688;28;20017;-66
2021/06/20 01:18:16;;;;;;;10.20;9.50;;;;;;;24.12;54.96;94893.56;5009955;28;20046;-65
2021/06/20 01:20:43;;;;;;;9.90;9.20;;;;;;;24.05;54.96;94882.72;5008035;28;20095;-65
2021/06/20 01:23:09;;;;;;;10.02;9.23;;;;;;;24.15;54.97;94887.31;5009358;28;20042;-66
2021/06/20 01:25:36;;;;;;;9.93;8.98;;;;;;;24.02;55.08;94880.81;5014272;28;20498;-65
2021/06/20 01:28:08;;;;;;;9.75;8.85;;;;;;;23.95;55.33;94878.13;5033163;28;20086;-66
2021/06/20 01:30:36;;;;;;;9.55;8.85;;;;;;;23.98;55.98;94885.47;5031949;28;20338;-66
2021/06/20 01:33:05;;;;;;;10.95;9.93;;;;;;;23.96;55.84;94893.28;5029330;28;20168;-66
2021/06/20 01:35:30;;;;;;;10.45;9.63;;;;;;;23.85;56.24;94894.09;5019368;28;20045;-65
2021/06/20 01:37:56;;;;;;;10.52;9.65;;;;;;;23.76;56.18;94874.72;5017712;28;20060;-65
2021/06/20 01:40:23;;;;;;;10.45;9.65;;;;;;;23.80;56.63;94880.13;5029783;28;20013;-64
2021/06/20 01:42:50;;;;;;;10.93;10.23;;;;;;;23.77;56.75;94880.94;5014537;28;20088;-65
2021/06/20 01:45:17;;;;;;;10.15;9.27;;;;;;;23.74;56.91;94879.00;5030815;28;20038;-65
2021/06/20 01:47:43;;;;;;;10.30;9.65;;;;;;;23.70;56.74;94879.03;5030850;28;20033;-66
2021/06/20 01:50:11;;;;;;;10.20;9.45;;;;;;;23.71;57.16;94891.44;5029484;28;20055;-65
2021/06/20 01:52:37;;;;;;;12.13;10.32;;;;;;;23.71;56.77;94888.72;5024229;28;20054;-66
2021/06/20 01:55:04;;;;;;;11.35;10.55;;;;;;;23.69;57.04;94885.59;5011500;28;20025;-66
2021/06/20 01:57:31;;;;;;;11.13;9.95;;;;;;;23.72;57.23;94879.41;5029043;28;20041;-66
2021/06/20 01:59:59;;;;;;;10.88;9.90;;;;;;;23.69;57.43;94891.03;5014367;28;20555;-66
2021/06/20 02:02:27;;;;;;;10.70;9.93;;;;;;;23.74;57.43;94892.56;5021321;28;20117;-66
2021/06/20 02:04:55;;;;;;;10.77;9.82;;;;;;;23.79;57.12;94884.78;5023822;28;20029;-66
2021/06/20 02:07:22;;;;;;;11.18;10.10;;;;;;;23.80;57.26;94883.63;5010479;28;20026;-65
2021/06/20 02:09:47;;;;;;;11.48;10.38;;;;;;;23.51;58.13;94876.75;5012539;28;20117;-66
2021/06/20 02:12:15;;;;;;;11.38;10.35;;;;;;;23.08;59.79;94887.69;5027620;28;20683;-65
2021/06/20 02:14:41;;;;;;;11.43;10.63;;;;;;;23.03;59.60;94880.75;5030341;28;20044;-65
2021/06/20 02:17:13;;;;;;;10.98;10.02;;;;;;;23.10;59.43;94888.09;5030398;28;20033;-65
2021/06/20 02:19:38;;;;;;;11.40;10.52;;;;;;;23.12;59.49;94888.47;5030035;28;20040;-65
2021/06/20 02:22:03;;;;;;;11.65;10.75;;;;;;;23.24;59.81;94892.72;5031824;28;20036;-66
2021/06/20 02:24:29;;;;;;;11.43;10.60;;;;;;;23.20;59.05;94887.28;5029684;28;20068;-65
2021/06/20 02:26:54;;;;;;;12.20;11.20;;;;;;;23.14;59.14;94871.81;5030148;28;20591;-65
2021/06/20 02:29:19;;;;;;;11.88;11.00;;;;;;;23.20;59.34;94883.81;5030273;28;20036;-65
2021/06/20 02:31:45;;;;;;;11.90;10.80;;;;;;;23.20;59.47;94875.66;5030112;28;20064;-65
2021/06/20 02:34:10;;;;;;;10.63;9.90;;;;;;;22.98;59.79;94847.78;5028244;28;20026;-65
2021/06/20 02:36:35;;;;;;;12.52;10.68;;;;;;;23.13;59.98;94873.72;5011917;28;20230;-65
2021/06/20 02:39:01;;;;;;;10.52;9.63;;;;;;;23.09;59.98;94881.88;5009811;28;20042;-65
2021/06/20 02:41:27;;;;;;;10.63;9.82;;;;;;;22.98;59.73;94848.59;5010170;28;20523;-65
2021/06/20 02:43:52;;;;;;;12.02;11.23;;;;;;;23.10;60.21;94860.94;5015901;28;20036;-65
2021/06/20 02:46:17;;;;;;;11.60;10.70;;;;;;;23.08;60.13;94865.97;5028299;28;20348;-65
2021/06/20 02:48:43;;;;;;;11.52;10.65;;;;;;;22.91;60.20;94843.16;5010729;28;20112;-65
2021/06/20 02:51:09;;;;;;;12.05;10.85;;;;;;;23.03;60.54;94877.22;5008800;28;20070;-65
2021/06/20 02:53:34;;;;;;;11.77;10.85;;;;;;;23.09;60.36;94871.03;5023835;28;20072;-66
2021/06/20 02:56:00;;;;;;;11.13;10.27;;;;;;;23.13;60.32;94870.22;5036439;28;20666;-65
2021/06/20 02:58:25;;;;;;;11.95;10.95;;;;;;;23.04;60.24;94867.94;5048374;28;20451;-65
2021/06/20 03:00:50;;;;;;;12.02;10.98;;;;;;;22.97;60.25;94859.81;5050754;28;20032;-66
2021/06/20 03:03:16;;;;;;;10.90;10.07;;;;;;;23.03;60.60;94872.59;5047809;28;20029;-65
2021/06/20 03:05:41;;;;;;;11.45;10.50;;;;;;;22.99;60.55;94868.34;5049213;28;20029;-66
2021/06/20 03:08:06;;;;;;;11.27;10.43;;;;;;;22.84;60.99;94879.16;5037336;28;20080;-65
2021/06/20 03:10:32;;;;;;;11.13;10.10;;;;;;;22.74;60.79;94871.81;5029295;28;20044;-66
2021/06/20 03:12:57;;;;;;;10.57;9.77;;;;;;;22.99;60.48;94892.75;5030844;28;20472;-65
2021/06/20 03:15:22;;;;;;;12.00;10.93;;;;;;;22.97;60.40;94892.34;5028035;28;20634;-65
2021/06/20 03:17:48;;;;;;;11.55;10.45;;;;;;;22.98;60.48;94891.19;5029193;28;20037;-65
2021/06/20 03:20:14;;;;;;;11.60;10.60;;;;;;;23.00;60.78;94894.28;5020387;28;20038;-65
2021/06/20 03:22:39;;;;;;;9.45;8.75;;;;;;;22.93;61.12;94891.56;5013110;28;20120;-65
2021/06/20 03:25:05;;;;;;;10.77;9.80;;;;;;;23.10;60.47;94893.50;5011829;28;20018;-65
2021/06/20 03:27:30;;;;;;;10.82;9.93;;;;;;;23.08;59.83;94876.81;4989872;28;20070;-64
2021/06/20 03:29:56;;;;;;;11.05;9.80;;;;;;;23.26;59.58;94912.09;4989921;28;20049;-65
2021/06/20 03:32:21;;;;;;;9.73;9.13;;;;;;;23.28;59.42;94910.50;4988012;28;20573;-66
2021/06/20 03:34:48;;;;;;;11.38;10.43;;;;;;;23.26;59.67;94912.84;4989813;28;20216;-65
2021/06/20 03:37:14;;;;;;;10.98;9.98;;;;;;;23.12;59.71;94895.81;4993096;28;20029;-65
2021/06/20 03:39:39;;;;;;;11.25;10.35;;;;;;;23.22;59.25;94927.59;5030701;28;20116;-66
2021/06/20 03:42:05;;;;;;;10.80;9.90;;;;;;;23.12;60.09;94925.66;5028715;28;20037;-65
2021/06/20 03:44:31;;;;;;;10.95;10.00;;;;;;;23.22;59.90;94931.06;5028467;28;20128;-65
2021/06/20 03:46:58;;;;;;;11.55;10.60;;;;;;;23.25;59.37;94922.16;5021166;28;20034;-65
2021/06/20 03:49:23;;;;;;;10.82;10.02;;;;;;;23.21;59.54;94920.63;5007906;28;20488;-65
2021/06/20 03:51:48;;;;;;;11.38;10.43;;;;;;;23.05;60.01;94912.88;5009757;28;20072;-64
2021/06/20 03:54:14;;;;;;;10.45;9.68;;;;;;;22.88;60.67;94900.91;5022689;28;20030;-65
2021/06/20 03:56:39;;;;;;;12.00;10.25;;;;;;;22.98;60.31;94897.41;5008532;28;20042;-65
2021/06/20 03:59:08;;;;;;;10.57;9.70;;;;;;;23.05;60.14;94904.75;5009014;28;20042;-65
2021/06/20 04:01:34;;;;;;;11.50;10.23;;;;;;;22.86;60.97;94905.88;5012311;28;20521;-65
2021/06/20 04:03:59;;;;;;;10.40;9.60;;;;;;;22.83;61.05;94921.00;5030005;28;20056;-65
2021/06/20 04:06:25;;;;;;;10.35;9.55;;;;;;;22.78;61.08;94913.25;5028313;28;20495;-65
2021/06/20 04:08:50;;;;;;;10.40;9.60;;;;;;;23.21;60.24;94936.91;5028832;28;20403;-65
2021/06/20 04:11:15;;;;;;;11.27;10.48;;;;;;;22.70;61.62;94941.53;5035384;28;20037;-65
2021/06/20 04:13:41;;;;;;;11.00;10.00;;;;;;;22.43;63.02;94934.94;5028014;28;20037;-65
2021/06/20 04:16:06;;;;;;;10.73;9.48;;;;;;;22.67;62.64;94945.00;5030280;28;20490;-65
2021/06/20 04:18:31;;;;;;;10.15;9.35;;;;;;;22.93;61.95;94943.09;5028107;28;20077;-65
2021/06/20 04:20:57;;;;;;;9.50;8.75;;;;;;;23.34;61.20;94946.97;5028402;28;20034;-66
2021/06/20 04:23:22;;;;;;;10.68;9.88;;;;;;;23.17;61.30;94961.31;5027415;28;20065;-66
2021/06/20 04:25:47;;;;;;;10.10;9.38;;;;;;;23.43;60.53;94956.63;5022892;28;20113;-65
2021/06/20 04:28:16;;;;;;;10.15;9.25;;;;;;;23.86;59.92;94947.25;5009189;28;20071;-65
2021/06/20 04:30:41;;;;;;;9.80;9.10;;;;;;;24.40;58.25;94949.72;5030166;28;20032;-66
2021/06/20 04:33:06;;;;;;;9.45;8.70;;;;;;;24.81;57.59;94960.72;5027789;28;20041;-66
2021/06/20 04:35:32;;;;;;;10.63;9.65;;;;;;;24.73;57.14;94961.97;5028089;28;20036;-65
2021/06/20 04:37:57;;;;;;;10.30;9.40;;;;;;;24.16;58.88;94975.06;5027735;28;20034;-65
2021/06/20 04:40:24;;;;;;;10.00;9.15;;;;;;;23.23;63.03;94992.31;5031734;28;20490;-66
2021/06/20 04:43:09;;;;;;;10.82;9.80;;;;;;;22.91;64.00;94969.84;5049418;28;20047;-65
2021/06/20 04:45:34;;;;;;;11.23;10.32;;;;;;;22.35;65.71;94974.75;5048126;28;20037;-65
2021/06/20 04:48:00;;;;;;;11.45;10.40;;;;;;;22.49;65.95;94993.78;5048026;28;20040;-66
2021/06/20 04:50:26;;;;;;;10.55;9.65;;;;;;;22.56;65.77;95009.28;5048203;28;20053;-66
2021/06/20 04:52:51;;;;;;;10.77;9.77;;;;;;;22.67;65.14;94985.66;5042646;28;20037;-65
2021/06/20 04:55:16;;;;;;;10.70;9.75;;;;;;;23.11;63.40;94987.28;5039036;28;20075;-65
2021/06/20 04:57:42;;;;;;;10.18;9.25;;;;;;;23.65;61.73;94998.09;5031641;28;20093;-65
2021/06/20 05:00:09;;;;;;;10.25;9.27;;;;;;;24.32;60.42;94994.41;5048265;28;20483;-66
2021/06/20 05:02:35;;;;;;;9.18;8.00;;;;;;;24.73;58.32;94983.72;5039082;28;20121;-65
2021/06/20 05:05:02;;;;;;;9.38;8.68;;;;;;;25.21;57.11;94983.00;5038874;28;20095;-65
2021/06/20 05:07:28;;;;;;;11.80;8.90;;;;;;;25.37;56.08;94983.25;5050686;28;20536;-66
2021/06/20 05:09:53;;;;;;;9.27;8.35;;;;;;;25.09;56.30;94994.38;5033268;28;20025;-65
2021/06/20 05:12:18;;;;;;;9.85;8.52;;;;;;;25.25;55.72;94983.75;5013347;28;20052;-65
2021/06/20 05:14:45;;;;;;;9.88;8.88;;;;;;;24.88;56.64;94981.69;5024785;28;20044;-66
2021/06/20 05:17:13;;;;;;;10.00;9.15;;;;;;;25.20;56.61;94984.19;5022995;28;20042;-65
2021/06/20 05:19:39;;;;;;;10.60;8.68;;;;;;;25.31;55.48;94971.25;5015531;28;20038;-65
2021/06/20 05:22:05;;;;;;;9.55;8.68;;;;;;;25.47;54.69;94981.59;5033075;28;20022;-64
2021/06/20 05:24:30;;;;;;;9.07;8.18;;;;;;;25.43;54.77;94980.84;5030432;28;20076;-65
2021/06/20 05:26:56;;;;;;;10.65;8.38;;;;;;;25.63;53.82;94992.72;5015175;28;20038;-64
2021/06/20 05:29:22;;;;;;;8.68;7.88;;;;;;;25.82;53.00;95007.75;5021575;28;20061;-64
2021/06/20 05:31:47;;;;;;;11.98;8.48;;;;;;;25.35;54.54;95012.06;5025945;28;20147;-65
2021/06/20 05:34:12;;;;;;;10.82;7.93;;;;;;;25.24;54.55;95028.47;5011340;28;20033;-65
2021/06/20 05:36:38;;;;;;;14.50;8.32;;;;;;;25.49;54.26;95027.47;5032990;28;20037;-67
2021/06/20 05:39:04;;;;;;;13.45;8.27;;;;;;;25.25;54.38;95035.47;5030475;28;20068;-65
2021/06/20 05:41:29;;;;;;;12.90;7.65;;;;;;;24.95;54.70;95029.81;5030705;28;20045;-66
2021/06/20 05:43:54;;;;;;;18.48;8.02;;;;;;;25.25;54.05;95048.31;5024214;28;20092;-66
2021/06/20 05:46:22;;;;;;;17.58;8.23;;;;;;;25.25;53.59;95049.06;5012813;28;20460;-65
2021/06/20 05:48:47;;;;;;;20.08;8.43;;;;;;;25.03;53.15;95070.19;5032815;28;20100;-66
2021/06/20 05:51:13;;;;;;;13.52;8.13;;;;;;;25.19;53.01;95053.41;5030794;28;20302;-66
2021/06/20 05:53:38;;;;;;;10.68;7.10;;;;;;;25.24;52.55;95054.94;5029743;28;20037;-66
2021/06/20 05:56:04;;;;;;;12.15;7.40;;;;;;;24.69;54.11;95061.06;5023157;28;20408;-66
2021/06/20 05:58:29;;;;;;;25.65;7.07;;;;;;;24.90;53.33;95078.03;5013810;28;20041;-66
2021/06/20 06:00:54;;;;;;;17.75;7.35;;;;;;;25.20;52.77;95068.56;5032579;28;20025;-66
2021/06/20 06:03:20;;;;;;;22.52;7.32;;;;;;;25.15;52.47;95068.97;5030162;28;20033;-65
2021/06/20 06:05:45;;;;;;;13.45;7.57;;;;;;;24.86;53.40;95079.22;5030517;28;20579;-66
2021/06/20 06:08:10;;;;;;;23.90;7.72;;;;;;;24.83;53.71;95086.25;5029672;28;20039;-66
2021/06/20 06:10:36;;;;;;;14.48;7.78;;;;;;;24.61;54.54;95092.94;5029599;28;20414;-66
2021/06/20 06:13:01;;;;;;;17.42;7.15;;;;;;;24.72;53.87;95090.97;5031805;28;20075;-67
2021/06/20 06:15:30;;;;;;;18.05;8.15;;;;;;;24.47;54.76;95101.19;5011481;28;20042;-66
2021/06/20 06:17:56;;;;;;;24.85;7.22;;;;;;;24.36;55.19;95109.34;5025068;28;20038;-65
2021/06/20 06:20:22;;;;;;;15.82;7.50;;;;;;;24.37;55.27;95108.22;5030377;28;20052;-66
2021/06/20 06:22:48;;;;;;;15.75;6.82;;;;;;;24.39;54.99;95105.84;5024068;28;20038;-65
2021/06/20 06:25:14;;;;;;;20.98;8.40;;;;;;;24.21;55.66;95110.53;4990609;28;20890;-66
2021/06/20 06:27:41;;;;;;;18.17;7.50;;;;;;;23.98;56.25;95125.34;4992495;28;20022;-66
2021/06/20 06:30:09;;;;;;;21.70;7.95;;;;;;;24.23;55.67;95124.53;5006678;28;20045;-65
2021/06/20 06:32:34;;;;;;;23.52;8.07;;;;;;;24.41;54.98;95113.63;5009826;28;20042;-65
2021/06/20 06:35:00;;;;;;;24.52;7.68;;;;;;;23.90;56.43;95112.13;5009875;28;20399;-65
2021/06/20 06:37:25;;;;;;;20.40;7.32;;;;;;;23.96;56.73;95126.91;5010267;28;20022;-66
2021/06/20 06:39:50;;;;;;;19.63;7.40;;;;;;;23.90;56.50;95129.22;5035848;28;20116;-66
2021/06/20 06:42:16;;;;;;;23.77;8.00;;;;;;;23.84;57.14;95136.22;5032129;28;20038;-66
2021/06/20 06:44:41;;;;;;;16.42;8.13;;;;;;;23.77;56.94;95137.00;5028440;28;20045;-66
2021/06/20 06:47:07;;;;;;;18.30;7.97;;;;;;;23.96;57.14;95127.69;5037611;28;20540;-66
2021/06/20 06:49:34;;;;;;;15.32;7.90;;;;;;;24.15;56.38;95128.41;5046478;28;20034;-65
2021/06/20 06:51:59;;;;;;;16.73;7.35;;;;;;;23.72;57.20;95133.91;5031556;28;20576;-65
2021/06/20 06:54:25;;;;;;;23.55;7.82;;;;;;;23.82;57.20;95141.25;5016185;28;20042;-65
2021/06/20 06:56:50;;;;;;;16.38;7.68;;;;;;;23.92;57.31;95150.56;5009681;28;20125;-65
2021/06/20 06:59:15;;;;;;;16.40;8.18;;;;;;;24.33;56.41;95150.91;5017601;28;20516;-65
2021/06/20 07:01:41;;;;;;;17.30;7.63;;;;;;;24.11;57.45;95155.59;5029331;28;20469;-65
2021/06/20 07:04:07;;;;;;;14.15;8.23;;;;;;;24.21;57.10;95159.44;5030701;28;20029;-65
2021/06/20 07:06:32;;;;;;;18.50;8.27;;;;;;;23.92;57.86;95158.72;5044501;28;20041;-65
2021/06/20 07:08:57;;;;;;;20.88;7.70;;;;;;;23.61;58.92;95178.09;5029140;28;20037;-64
2021/06/20 07:11:23;;;;;;;21.27;7.63;;;;;;;23.79;58.72;95169.19;5032772;28;20060;-65
2021/06/20 07:13:49;;;;;;;22.83;8.15;;;;;;;24.06;58.16;95180.47;5034020;28;20029;-66
2021/06/20 07:16:14;;;;;;;18.40;7.95;;;;;;;24.07;57.96;95171.91;5049038;28;20082;-64
2021/06/20 07:18:39;;;;;;;17.60;7.80;;;;;;;23.64;59.11;95168.41;5050891;28;20032;-64
2021/06/20 07:21:06;;;;;;;21.48;8.63;;;;;;;23.66;59.02;95159.91;5048967;28;20051;-58
2021/06/20 07:23:31;;;;;;;16.63;7.40;;;;;;;23.94;58.45;95167.25;5042645;28;20073;-64
2021/06/20 07:25:57;;;;;;;22.40;7.38;;;;;;;23.88;58.38;95171.53;5022707;28;20061;-63
2021/06/20 07:28:23;;;;;;;21.73;8.15;;;;;;;23.93;58.28;95179.28;5009060;28;20442;-63
2021/06/20 07:30:49;;;;;;;16.95;7.00;;;;;;;23.71;59.29;95176.56;5011408;28;20025;-63
2021/06/20 07:33:20;;;;;;;12.18;7.57;;;;;;;24.25;57.05;95163.72;5025888;28;20435;-69
2021/06/20 07:35:49;;;;;;;19.00;8.57;;;;;;;24.55;56.61;95148.91;5027961;28;20466;-69
2021/06/20 07:38:15;;;;;;;13.60;6.97;;;;;;;25.31;54.56;95153.66;5027505;28;20124;-62
2021/06/20 07:40:40;;;;;;;24.00;8.85;;;;;;;25.21;54.29;95149.03;5027433;28;20116;-65
2021/06/20 07:43:06;;;;;;;21.17;8.00;;;;;;;24.92;55.64;95159.25;5030225;28;20512;-62
2021/06/20 07:45:32;;;;;;;18.08;7.93;;;;;;;25.19;54.48;95154.13;5027735;28;20026;-62
2021/06/20 07:47:59;;;;;;;23.23;7.53;;;;;;;25.20;53.95;95127.66;5028588;28;20045;-62
2021/06/20 07:50:24;;;;;;;14.18;6.97;;;;;;;25.73;53.04;95165.41;5027573;28;20037;-65
2021/06/20 07:52:49;;;;;;;19.00;7.32;;;;;;;25.25;54.74;95168.84;5028505;28;20036;-62
2021/06/20 07:55:15;;;;;;;21.27;7.68;;;;;;;25.56;54.13;95175.28;5019816;28;20029;-61
2021/06/20 07:57:40;;;;;;;18.60;7.47;;;;;;;25.86;53.45;95176.66;5030363;28;20014;-62
2021/06/20 08:00:08;;;;;;;17.40;7.13;;;;;;;26.61;51.49;95184.16;5027201;28;20042;-64
2021/06/20 08:02:35;;;;;;;20.63;7.97;;;;;;;26.86;50.71;95187.38;5028168;28;20364;-62
2021/06/20 08:05:00;;;;;;;21.70;7.18;;;;;;;26.01;52.39;95182.75;5028492;28;20050;-62
2021/06/20 08:07:26;;;;;;;19.58;7.40;;;;;;;25.83;53.36;95188.34;5028467;28;20030;-63
2021/06/20 08:09:51;;;;;;;17.10;7.25;;;;;;;25.86;53.37;95193.78;5038774;28;20036;-64
2021/06/20 08:12:16;;;;;;;14.60;7.18;;;;;;;26.19;52.84;95186.09;5047712;28;20033;-65
2021/06/20 08:14:42;;;;;;;21.27;6.65;;;;;;;26.21;50.75;95181.03;5048639;28;20124;-66
2021/06/20 08:17:09;;;;;;;19.27;6.28;;;;;;;26.32;51.21;95184.41;5048141;28;20486;-64
2021/06/20 08:19:35;;;;;;;19.48;6.43;;;;;;;26.55;50.70;95169.41;5048094;28;20048;-71
2021/06/20 08:22:00;;;;;;;24.25;8.05;;;;;;;26.18;49.71;95160.00;5048995;28;20037;-74
2021/06/20 08:24:26;;;;;;;30.17;7.50;;;;;;;26.64;47.70;95158.78;5038705;28;20061;-70
2021/06/20 08:26:51;;;;;;;22.17;7.30;;;;;;;26.02;49.52;95118.91;5027960;28;20103;-69
2021/06/20 08:29:17;;;;;;;31.25;7.80;;;;;;;25.44;51.32;95177.69;5028378;28;20093;-67
2021/06/20 08:31:42;;;;;;;25.30;6.47;;;;;;;25.47;51.04;95158.59;5024290;28;20037;-65
2021/06/20 08:34:08;;;;;;;23.75;7.30;;;;;;;25.45;51.67;95165.63;5012773;28;20446;-64
2021/06/20 08:36:35;;;;;;;23.23;7.82;;;;;;;25.55;51.14;95172.97;5046976;28;20730;-68
2021/06/20 08:39:00;;;;;;;26.42;6.55;;;;;;;25.64;50.45;95184.16;5031862;28;20068;-70
2021/06/20 08:41:29;;;;;;;27.55;6.60;;;;;;;25.45;50.95;95185.47;5032010;28;20073;-61
2021/06/20 08:43:54;;;;;;;25.30;6.22;;;;;;;25.51;50.26;95183.88;5026026;28;20041;-63
2021/06/20 08:46:20;;;;;;;27.20;6.65;;;;;;;26.03;52.24;95183.13;5028873;28;20032;-73
2021/06/20 08:48:46;;;;;;;23.85;6.35;;;;;;;25.59;51.15;95204.44;5034357;28;20033;-69
2021/06/20 08:51:11;;;;;;;23.25;6.53;;;;;;;26.58;49.18;95201.34;5030910;28;20145;-69
2021/06/20 08:53:36;;;;;;;22.90;6.05;;;;;;;26.57;48.72;95191.63;5031148;28;20038;-65
2021/06/20 08:56:02;;;;;;;31.08;6.38;;;;;;;26.42;47.04;95172.66;5033582;28;20071;-62
2021/06/20 08:58:33;;;;;;;24.95;7.50;;;;;;;26.86;47.39;95192.81;5051646;28;20390;-69
2021/06/20 09:01:00;;;;;;;28.90;11.02;;;;;;;26.76;46.91;95173.84;5053920;28;20025;-72
2021/06/20 09:03:37;;;;;;;40.20;19.27;;;;;;;27.10;46.96;95176.59;5031481;28;20486;-64
2021/06/20 09:06:24;;;;;;;43.85;22.02;;;;;;;27.11;46.51;95173.44;5047357;28;20496;-65
2021/06/20 09:08:51;;;;;;;42.08;19.83;;;;;;;28.05;44.52;95164.66;5048524;28;20046;-71
2021/06/20 09:11:40;;;;;;;50.42;19.23;;;;;;;27.03;45.81;95176.66;5022854;28;20054;-69
2021/06/20 09:14:16;;;;;;;32.85;9.98;;;;;;;26.85;46.13;95103.94;5019278;28;20407;-68
2021/06/20 09:16:46;;;;;;;46.88;17.60;;;;;;;27.44;44.99;95157.41;5031499;28;20037;-63
2021/06/20 09:19:12;;;;;;;32.15;12.77;;;;;;;26.30;47.23;95150.53;5032149;28;20475;-67
2021/06/20 09:21:37;;;;;;;24.17;10.32;;;;;;;25.88;47.21;95139.63;5034112;28;20095;-79
2021/06/20 09:24:03;;;;;;;36.47;18.00;;;;;;;26.61;47.00;95143.22;5028949;28;20049;-77
2021/06/20 09:26:36;;;;;;;51.35;23.90;;;;;;;27.15;45.43;95138.69;5026227;28;20483;-61
2021/06/20 09:29:02;;;;;;;59.67;28.73;;;;;;;26.88;46.06;95129.66;5031285;28;20084;-60
2021/06/20 09:31:49;;;;;;;48.78;23.80;;;;;;;27.79;44.98;95123.31;5031466;28;20048;-61
2021/06/20 09:34:15;;;;;;;29.88;10.73;;;;;;;27.95;44.13;95128.91;5030635;28;20095;-62
2021/06/20 09:36:41;;;;;;;19.90;8.02;;;;;;;28.25;43.66;95129.94;5033089;28;20026;-61
2021/06/20 09:39:18;;;;;;;19.48;8.00;;;;;;;28.21;43.06;95130.03;5033551;28;20044;-62
2021/06/20 09:41:55;;;;;;;18.42;6.82;;;;;;;29.26;41.08;95119.34;5038087;28;20328;-60
2021/06/20 09:44:34;;;;;;;21.10;6.97;;;;;;;28.15;42.59;95128.16;5030679;28;20040;-75
2021/06/20 09:46:59;;;;;;;19.10;5.80;;;;;;;28.33;42.02;95087.63;5037489;28;20052;-73
2021/06/20 09:49:28;;;;;;;16.63;5.68;;;;;;;29.08;40.53;95108.03;5051036;28;20735;-72
2021/06/20 09:51:55;;;;;;;21.23;5.53;;;;;;;29.73;39.80;95105.38;5052479;28;20818;-60
2021/06/20 09:54:35;;;;;;;20.63;6.25;;;;;;;29.26;40.25;95104.88;5044653;28;20068;-61
2021/06/20 09:57:01;;;;;;;17.48;5.40;;;;;;;29.33;39.78;95112.16;5029212;28;20037;-62
2021/06/20 09:59:29;;;;;;;18.08;5.10;;;;;;;29.71;39.38;95098.78;5029312;28;20128;-62
2021/06/20 10:02:05;;;;;;;24.95;6.10;;;;;;;29.71;38.83;95093.31;5030638;28;20041;-62
2021/06/20 10:04:30;;;;;;;29.48;6.70;;;;;;;30.30;38.41;95100.41;5030669;28;20018;-62
2021/06/20 10:06:56;;;;;;;20.05;5.38;;;;;;;30.86;37.38;95088.31;5032544;28;20018;-64
2021/06/20 10:09:21;;;;;;;24.02;6.35;;;;;;;30.04;38.77;95080.31;5012702;28;20436;-63
2021/06/20 10:11:48;;;;;;;20.90;6.25;;;;;;;30.20;38.83;95076.78;5010633;28;20034;-62
2021/06/20 10:14:14;;;;;;;19.05;6.10;;;;;;;29.60;39.22;95092.78;5010219;28;20045;-62
2021/06/20 10:16:48;;;;;;;18.90;6.20;;;;;;;29.23;39.80;95078.38;5014522;28;20026;-62
2021/06/20 10:19:18;;;;;;;19.77;5.43;;;;;;;30.18;38.57;95076.47;5030102;28;20067;-63
2021/06/20 10:21:47;;;;;;;17.77;5.60;;;;;;;30.42;38.74;95077.75;5012826;28;20057;-69
2021/06/20 10:24:17;;;;;;;16.60;5.65;;;;;;;30.71;37.05;95071.47;5009773;28;20125;-78
2021/06/20 10:26:56;;;;;;;26.73;6.93;;;;;;;30.51;36.98;95068.91;5021306;28;20036;-71
2021/06/20 10:29:24;;;;;;;16.55;6.07;;;;;;;28.95;38.92;95023.03;5020462;28;20042;-70
2021/06/20 10:31:51;;;;;;;19.13;5.40;;;;;;;29.58;39.30;95067.78;5015440;28;20057;-71
2021/06/20 10:34:23;;;;;;;19.63;5.50;;;;;;;30.50;36.77;95084.56;5029121;28;20032;-72
2021/06/20 10:36:53;;;;;;;19.10;6.18;;;;;;;29.95;38.39;95080.94;5011608;28;20025;-74
2021/06/20 10:39:19;;;;;;;22.85;6.25;;;;;;;30.36;38.10;95074.00;5010119;28;20054;-64
2021/06/20 10:41:44;;;;;;;16.23;5.75;;;;;;;30.71;36.46;95074.22;5022427;28;20088;-65
2021/06/20 10:44:10;;;;;;;17.10;5.40;;;;;;;30.83;36.09;95061.75;5029542;28;20121;-64
2021/06/20 10:46:38;;;;;;;17.30;5.32;;;;;;;32.01;34.61;95056.84;5030091;28;20072;-65
2021/06/20 10:49:18;;;;;;;17.75;5.05;;;;;;;30.85;35.68;95060.09;5030560;28;20032;-63
2021/06/20 10:51:44;;;;;;;19.63;5.93;;;;;;;31.36;35.03;95048.38;5045693;28;20128;-68
2021/06/20 10:54:24;;;;;;;23.25;5.65;;;;;;;31.62;34.73;95041.63;5012796;28;20518;-62
2021/06/20 10:56:58;;;;;;;17.00;5.50;;;;;;;32.60;33.10;95040.63;5009451;28;20404;-64
2021/06/20 10:59:24;;;;;;;17.60;4.80;;;;;;;31.95;33.27;95042.13;5009778;28;20124;-69
2021/06/20 11:01:50;;;;;;;19.48;5.53;;;;;;;32.37;32.54;95033.59;5009649;28;20125;-71
2021/06/20 11:04:16;;;;;;;18.30;5.80;;;;;;;33.06;31.22;95021.59;5009678;28;20036;-75
2021/06/20 11:06:51;;;;;;;19.85;5.32;;;;;;;33.33;31.15;95018.19;5031836;28;20029;-69
2021/06/20 11:09:17;;;;;;;19.20;5.72;;;;;;;33.88;30.77;95029.31;5029090;28;20053;-63
2021/06/20 11:11:57;;;;;;;20.67;5.60;;;;;;;34.57;30.75;95027.97;5029146;28;20044;-66
2021/06/20 11:14:23;;;;;;;19.67;5.72;;;;;;;35.15;29.37;95026.91;5028816;28;20057;-64
2021/06/20 11:16:50;;;;;;;15.75;5.05;;;;;;;35.67;28.41;95019.25;5024601;28;20050;-63
2021/06/20 11:19:22;;;;;;;19.27;6.20;;;;;;;35.37;27.92;95010.81;5009731;28;20026;-65
2021/06/20 11:21:57;;;;;;;18.05;5.82;;;;;;;35.79;27.99;95006.44;5030879;28;20132;-64